Current Conditions
Rain
Conditions



Pressure
1017.92 (hPa) - 30.06 (inHG)
Visibility

3.7 (km) - 2.3 (miles)
Temperature
4  °C
Temperature
4  °C
Dewpoint
100  %
 Humidity
Wind Speed
29  km/h
16  kts
18  mph
8.0  m/s
Wind Direction
N
45°
E
90°
135°
S
180°
225°
W
270°
315°
 280°

Due West
Airport Data
EDQM
Hof-Plauen Airport
Metar :EDQM 031550Z 28016KT 3700 +RA FEW005 SCT011 BKN017 04/04 Q1018 RERA
Fri 3rd February 16:50 pm
Raw Metar Info
Raw METAR is the most common format in the world for the transmission of observational weather data. It is highly standardized through the International Civil Aviation Organization (ICAO), which allows it to be understood throughout most of the world.
API Info
Data Provided by
https://www.checkwx.com/weather/EDQM

Aviation Weather providing METAR, TAF, AIRMET, SIGMET and OUTLOOK Weather Reports
© Info
CSS/SVG/PHP scripts were developed by weather34 for use in the weather34 template © 2015-2023

Guide Info provided by Metar-Wikipedia